Time;durP1;ratioP1;P1;durP2;ratioP2;P2;SDS_P1;SDS_P2;PMS_P1;PMS_P2;Temp;Humidity;BMP_temperature;BMP_pressure;BME280_temperature;BME280_humidity;BME280_pressure;Samples;Min_cycle;Max_cycle;Signal;HPM_P1;HPM_P2
2021/04/13 00:02:16;;;;;;;0.00;0.00;;;;;;;;;;4991415;28;20193;-59
2021/04/13 00:04:42;;;;;;;0.20;0.20;;;;;;;;;;5001922;28;20189;-60
2021/04/13 00:07:10;;;;;;;0.00;0.00;;;;;;;;;;4992016;28;20192;-60
2021/04/13 00:09:38;;;;;;;0.00;0.00;;;;;;;;;;5000969;28;20192;-60
2021/04/13 00:12:16;;;;;;;0.10;0.10;;;;;;;;;;5000715;28;20624;-60
2021/04/13 00:14:48;;;;;;;0.00;0.00;;;;;;;;;;4997371;28;20185;-60
2021/04/13 00:17:20;;;;;;;0.10;0.10;;;;;;;;;;5002566;28;20458;-59
2021/04/13 00:19:56;;;;;;;1.40;0.63;;;;;;;;;;5004709;28;20194;-60
2021/04/13 00:22:30;;;;;;;2.83;1.60;;;;;;;;;;4997171;28;20263;-60
2021/04/13 00:24:59;;;;;;;0.30;0.30;;;;;;;;;;4990709;28;20750;-60
2021/04/13 00:27:27;;;;;;;1.37;1.27;;;;;;;;;;4999730;28;20192;-60
2021/04/13 00:30:15;;;;;;;1.10;0.67;;;;;;;;;;5001086;28;20188;-60
2021/04/13 00:32:50;;;;;;;0.43;0.23;;;;;;;;;;4996915;28;20997;-60
2021/04/13 00:35:30;;;;;;;0.00;0.00;;;;;;;;;;4988471;28;20215;-60
2021/04/13 00:38:20;;;;;;;0.33;0.33;;;;;;;;;;4999357;28;20303;-60
2021/04/13 00:40:52;;;;;;;0.10;0.10;;;;;;;;;;4979331;28;20264;-60
2021/04/13 00:43:20;;;;;;;0.30;0.30;;;;;;;;;;5002806;28;20192;-60
2021/04/13 00:45:50;;;;;;;0.10;0.10;;;;;;;;;;4996382;28;20181;-60
2021/04/13 00:48:35;;;;;;;0.00;0.00;;;;;;;;;;4997529;28;20879;-59
2021/04/13 00:51:10;;;;;;;0.20;0.20;;;;;;;;;;4979025;28;20185;-60
2021/04/13 00:53:41;;;;;;;0.00;0.00;;;;;;;;;;4997787;28;20190;-60
2021/04/13 00:56:13;;;;;;;2.00;0.97;;;;;;;;;;5003832;28;20657;-60
2021/04/13 00:59:00;;;;;;;1.33;0.60;;;;;;;;;;4995301;28;20192;-61
2021/04/13 01:01:31;;;;;;;0.13;0.13;;;;;;;;;;4998165;28;20356;-59
2021/04/13 01:06:57;;;;;;;0.00;0.00;;;;;;;;;;5023927;23;20503;-60
2021/04/13 01:09:25;;;;;;;0.27;0.20;;;;;;;;;;5010851;28;20188;-60
2021/04/13 01:11:59;;;;;;;0.27;0.27;;;;;;;;;;5017124;28;20267;-60
2021/04/13 01:14:30;;;;;;;2.57;1.90;;;;;;;;;;5014562;28;20184;-60
2021/04/13 01:17:16;;;;;;;0.07;0.07;;;;;;;;;;5013965;28;20309;-61
2021/04/13 01:19:54;;;;;;;0.30;0.30;;;;;;;;;;5012207;28;20419;-60
2021/04/13 01:22:34;;;;;;;0.20;0.20;;;;;;;;;;5013996;28;20616;-60
2021/04/13 01:25:05;;;;;;;0.00;0.00;;;;;;;;;;5013872;28;20558;-61
2021/04/13 01:27:36;;;;;;;0.20;0.20;;;;;;;;;;5012384;28;20880;-60
2021/04/13 01:33:12;;;;;;;1.10;1.03;;;;;;;;;;4988295;22;20244;-60
2021/04/13 01:35:46;;;;;;;3.70;1.90;;;;;;;;;;4978255;28;20189;-60
2021/04/13 01:38:26;;;;;;;0.10;0.10;;;;;;;;;;4983803;28;20217;-60
2021/04/13 01:41:10;;;;;;;0.10;0.10;;;;;;;;;;4981891;28;20193;-59
2021/04/13 01:43:43;;;;;;;0.10;0.10;;;;;;;;;;4975807;28;20330;-59
2021/04/13 01:46:13;;;;;;;0.43;0.43;;;;;;;;;;4982906;28;20508;-60
2021/04/13 01:48:42;;;;;;;0.10;0.10;;;;;;;;;;4978902;28;20193;-60
2021/04/13 01:51:12;;;;;;;0.10;0.10;;;;;;;;;;4981554;28;20607;-58
2021/04/13 01:53:55;;;;;;;0.30;0.30;;;;;;;;;;4973450;28;20194;-61
2021/04/13 01:56:42;;;;;;;0.73;0.60;;;;;;;;;;4968936;28;20960;-63
2021/04/13 01:59:35;;;;;;;2.63;2.43;;;;;;;;;;4971052;28;20182;-62
2021/04/13 02:02:08;;;;;;;1.07;0.70;;;;;;;;;;4978408;28;20206;-58
2021/04/13 02:04:43;;;;;;;0.63;0.53;;;;;;;;;;4976899;28;20194;-61
2021/04/13 02:10:13;;;;;;;0.10;0.10;;;;;;;;;;4932242;28;20816;-61
2021/04/13 02:12:43;;;;;;;0.67;0.67;;;;;;;;;;4989285;28;20185;-61
2021/04/13 02:15:28;;;;;;;0.00;0.00;;;;;;;;;;4977905;28;20193;-62
2021/04/13 02:17:58;;;;;;;0.10;0.10;;;;;;;;;;4968620;28;20217;-62
2021/04/13 02:20:35;;;;;;;0.57;0.57;;;;;;;;;;4978842;28;20287;-60
2021/04/13 02:23:05;;;;;;;0.93;0.93;;;;;;;;;;4958657;28;20186;-62
2021/04/13 02:25:34;;;;;;;0.00;0.00;;;;;;;;;;4977710;28;20189;-62
2021/04/13 02:28:02;;;;;;;0.00;0.00;;;;;;;;;;4982360;28;20192;-62
2021/04/13 02:30:35;;;;;;;0.73;0.73;;;;;;;;;;4983024;28;20182;-62
2021/04/13 02:33:07;;;;;;;8.60;1.13;;;;;;;;;;4975398;28;20234;-62
2021/04/13 02:35:36;;;;;;;0.00;0.00;;;;;;;;;;4975711;28;20683;-62
2021/04/13 02:38:05;;;;;;;0.20;0.20;;;;;;;;;;4974653;28;20721;-62
2021/04/13 02:40:38;;;;;;;0.10;0.10;;;;;;;;;;4974338;28;20186;-62
2021/04/13 02:43:10;;;;;;;6.57;3.03;;;;;;;;;;4975688;28;20713;-62
2021/04/13 02:45:40;;;;;;;0.10;0.10;;;;;;;;;;4981873;28;20186;-59
2021/04/13 02:48:13;;;;;;;1.50;0.50;;;;;;;;;;4975186;28;20208;-59
2021/04/13 02:50:43;;;;;;;0.10;0.10;;;;;;;;;;4973898;28;20194;-59
2021/04/13 02:53:10;;;;;;;0.27;0.27;;;;;;;;;;4979399;28;20197;-61
2021/04/13 02:55:38;;;;;;;0.20;0.20;;;;;;;;;;4977634;28;20193;-60
2021/04/13 02:58:07;;;;;;;0.40;0.33;;;;;;;;;;4974898;28;20225;-59
2021/04/13 03:00:39;;;;;;;0.10;0.10;;;;;;;;;;4977280;28;20193;-61
2021/04/13 03:03:10;;;;;;;0.10;0.10;;;;;;;;;;4957741;28;20190;-61
2021/04/13 03:05:38;;;;;;;0.23;0.23;;;;;;;;;;4972971;28;20186;-61
2021/04/13 03:08:09;;;;;;;0.10;0.10;;;;;;;;;;4972968;28;20203;-61
2021/04/13 03:10:40;;;;;;;0.60;0.60;;;;;;;;;;4962250;28;20201;-61
2021/04/13 03:13:11;;;;;;;0.30;0.30;;;;;;;;;;4981644;28;20197;-61
2021/04/13 03:15:40;;;;;;;2.20;0.83;;;;;;;;;;4978937;28;20205;-61
2021/04/13 03:18:17;;;;;;;1.80;0.80;;;;;;;;;;4973309;28;20216;-61
2021/04/13 03:20:46;;;;;;;1.07;0.33;;;;;;;;;;4972809;28;20190;-61
2021/04/13 03:23:13;;;;;;;0.10;0.10;;;;;;;;;;4971873;28;20193;-61
2021/04/13 03:25:45;;;;;;;0.93;0.93;;;;;;;;;;4975184;28;20193;-61
2021/04/13 03:28:14;;;;;;;0.10;0.10;;;;;;;;;;4976936;28;20268;-61
2021/04/13 03:30:42;;;;;;;0.10;0.10;;;;;;;;;;4976993;28;20220;-61
2021/04/13 03:33:16;;;;;;;0.40;0.40;;;;;;;;;;4975790;28;20240;-61
2021/04/13 03:35:43;;;;;;;0.10;0.10;;;;;;;;;;4973345;28;20208;-61
2021/04/13 03:38:13;;;;;;;0.10;0.10;;;;;;;;;;4976500;28;20213;-61
2021/04/13 03:40:44;;;;;;;7.17;1.40;;;;;;;;;;4975359;28;20197;-61
2021/04/13 03:43:11;;;;;;;0.53;0.53;;;;;;;;;;4962419;28;20209;-61
2021/04/13 03:45:37;;;;;;;0.67;0.67;;;;;;;;;;4978362;28;20173;-61
2021/04/13 03:48:13;;;;;;;0.20;0.20;;;;;;;;;;4976354;28;20197;-61
2021/04/13 03:50:40;;;;;;;0.07;0.07;;;;;;;;;;4973163;28;20900;-61
2021/04/13 03:53:11;;;;;;;1.47;0.63;;;;;;;;;;4973728;28;20885;-61
2021/04/13 03:55:38;;;;;;;0.10;0.10;;;;;;;;;;4972368;28;20249;-61
2021/04/13 03:58:17;;;;;;;0.10;0.10;;;;;;;;;;4975195;28;20213;-61
2021/04/13 04:00:44;;;;;;;0.13;0.13;;;;;;;;;;4973113;28;21025;-61
2021/04/13 04:03:11;;;;;;;0.53;0.53;;;;;;;;;;4973337;28;20864;-61
2021/04/13 04:05:58;;;;;;;0.27;0.27;;;;;;;;;;4972868;28;20178;-62
2021/04/13 04:08:35;;;;;;;0.00;0.00;;;;;;;;;;4974468;28;20198;-62
2021/04/13 04:11:02;;;;;;;0.00;0.00;;;;;;;;;;4973124;28;20197;-61
2021/04/13 04:13:31;;;;;;;0.83;0.83;;;;;;;;;;4978242;28;20697;-61
2021/04/13 04:16:09;;;;;;;0.27;0.27;;;;;;;;;;4979312;28;20815;-62
2021/04/13 04:18:47;;;;;;;0.17;0.17;;;;;;;;;;4972926;28;20328;-61
2021/04/13 04:21:17;;;;;;;0.10;0.10;;;;;;;;;;4977315;28;20203;-62
2021/04/13 04:23:44;;;;;;;0.30;0.20;;;;;;;;;;4970337;28;20201;-62
2021/04/13 04:26:11;;;;;;;1.10;0.87;;;;;;;;;;4973734;28;20304;-61
2021/04/13 04:28:41;;;;;;;0.73;0.73;;;;;;;;;;4973959;28;21245;-61
2021/04/13 04:34:17;;;;;;;0.90;0.90;;;;;;;;;;5028902;23;20962;-61
2021/04/13 04:36:51;;;;;;;0.20;0.20;;;;;;;;;;5013681;28;20201;-62
2021/04/13 04:39:28;;;;;;;0.20;0.20;;;;;;;;;;5005207;28;20288;-61
2021/04/13 04:41:57;;;;;;;0.30;0.30;;;;;;;;;;5012103;28;20180;-61
2021/04/13 04:44:27;;;;;;;0.40;0.40;;;;;;;;;;5015150;28;20194;-61
2021/04/13 04:46:58;;;;;;;0.20;0.20;;;;;;;;;;5014300;28;20195;-62
2021/04/13 04:49:28;;;;;;;0.27;0.27;;;;;;;;;;5009228;28;20194;-62
2021/04/13 04:51:55;;;;;;;0.40;0.40;;;;;;;;;;5011447;28;20196;-62
2021/04/13 04:54:22;;;;;;;0.10;0.10;;;;;;;;;;5011081;28;20187;-62
2021/04/13 04:56:48;;;;;;;0.07;0.07;;;;;;;;;;5013927;28;20192;-61
2021/04/13 04:59:15;;;;;;;0.93;0.70;;;;;;;;;;5018463;28;20269;-62
2021/04/13 05:01:44;;;;;;;0.30;0.30;;;;;;;;;;5012492;28;20275;-61
2021/04/13 05:04:11;;;;;;;0.00;0.00;;;;;;;;;;5009545;28;20195;-61
2021/04/13 05:06:37;;;;;;;0.53;0.53;;;;;;;;;;5011040;28;20184;-62
2021/04/13 05:09:04;;;;;;;0.20;0.20;;;;;;;;;;5006890;28;20254;-63
2021/04/13 05:14:17;;;;;;;0.00;0.00;;;;;;;;;;5021153;22;20247;-61
2021/04/13 05:16:43;;;;;;;0.10;0.10;;;;;;;;;;5015173;28;20196;-62
2021/04/13 05:19:10;;;;;;;0.33;0.33;;;;;;;;;;5009434;28;20220;-62
2021/04/13 05:21:36;;;;;;;0.17;0.17;;;;;;;;;;5013251;28;20180;-62
2021/04/13 05:24:09;;;;;;;2.20;2.10;;;;;;;;;;5013363;28;20270;-62
2021/04/13 05:26:38;;;;;;;0.00;0.00;;;;;;;;;;5015370;28;20172;-62
2021/04/13 05:29:07;;;;;;;0.00;0.00;;;;;;;;;;5015855;28;20196;-61
2021/04/13 05:31:34;;;;;;;0.00;0.00;;;;;;;;;;5010704;28;21532;-62
2021/04/13 05:34:01;;;;;;;0.00;0.00;;;;;;;;;;5014437;28;20181;-62
2021/04/13 05:36:27;;;;;;;0.00;0.00;;;;;;;;;;5008648;28;20189;-61
2021/04/13 05:38:59;;;;;;;0.07;0.07;;;;;;;;;;5014294;28;20579;-62
2021/04/13 05:41:25;;;;;;;0.00;0.00;;;;;;;;;;5018087;28;20192;-61
2021/04/13 05:43:52;;;;;;;0.10;0.10;;;;;;;;;;5016923;28;20192;-62
2021/04/13 05:46:20;;;;;;;0.10;0.10;;;;;;;;;;5021609;28;20194;-61
2021/04/13 05:48:47;;;;;;;0.00;0.00;;;;;;;;;;5020212;28;20786;-61
2021/04/13 05:51:13;;;;;;;0.70;0.60;;;;;;;;;;5017607;28;20200;-61
2021/04/13 05:53:40;;;;;;;1.10;1.10;;;;;;;;;;5018650;28;20184;-61
2021/04/13 05:56:06;;;;;;;0.00;0.00;;;;;;;;;;5019375;28;20717;-62
2021/04/13 05:58:59;;;;;;;0.40;0.40;;;;;;;;;;5019104;28;20223;-61
2021/04/13 06:01:28;;;;;;;0.00;0.00;;;;;;;;;;5016300;28;20268;-61
2021/04/13 06:03:55;;;;;;;1.80;1.20;;;;;;;;;;5019193;28;20189;-62
2021/04/13 06:06:22;;;;;;;1.27;1.17;;;;;;;;;;5017438;28;20497;-61
2021/04/13 06:08:49;;;;;;;0.10;0.10;;;;;;;;;;5013718;28;20633;-61
2021/04/13 06:11:20;;;;;;;0.70;0.70;;;;;;;;;;5012552;28;20725;-61
2021/04/13 06:13:48;;;;;;;1.03;0.90;;;;;;;;;;5013622;28;20236;-61
2021/04/13 06:16:17;;;;;;;0.00;0.00;;;;;;;;;;5017300;28;20254;-62
2021/04/13 06:18:44;;;;;;;0.00;0.00;;;;;;;;;;5018580;28;20215;-62
2021/04/13 06:21:10;;;;;;;0.20;0.20;;;;;;;;;;5017172;28;20692;-61
2021/04/13 06:23:37;;;;;;;3.10;2.90;;;;;;;;;;5018774;28;20180;-62
2021/04/13 06:26:03;;;;;;;0.40;0.33;;;;;;;;;;5013541;28;21142;-61
2021/04/13 06:28:30;;;;;;;0.00;0.00;;;;;;;;;;5015869;28;20763;-62
2021/04/13 06:30:57;;;;;;;0.00;0.00;;;;;;;;;;5017744;28;20279;-61
2021/04/13 06:33:24;;;;;;;0.23;0.10;;;;;;;;;;5014854;28;20195;-61
2021/04/13 06:35:50;;;;;;;0.00;0.00;;;;;;;;;;5016352;28;20731;-62
2021/04/13 06:38:22;;;;;;;0.33;0.33;;;;;;;;;;5019043;28;20219;-62
2021/04/13 06:40:56;;;;;;;0.00;0.00;;;;;;;;;;5018849;28;20518;-61
2021/04/13 06:43:30;;;;;;;0.00;0.00;;;;;;;;;;5012613;28;20268;-62
2021/04/13 06:46:03;;;;;;;0.00;0.00;;;;;;;;;;5017795;28;20252;-62
2021/04/13 06:48:35;;;;;;;1.17;0.57;;;;;;;;;;5016674;28;20192;-62
2021/04/13 06:51:02;;;;;;;0.97;0.97;;;;;;;;;;5016476;28;20196;-61
2021/04/13 06:53:28;;;;;;;0.00;0.00;;;;;;;;;;5017383;28;20199;-61
2021/04/13 06:56:01;;;;;;;0.40;0.40;;;;;;;;;;5016922;28;20188;-62
2021/04/13 06:58:43;;;;;;;0.30;0.30;;;;;;;;;;5013867;28;20861;-61
2021/04/13 07:01:28;;;;;;;1.17;1.03;;;;;;;;;;5019068;28;20856;-61
2021/04/13 07:03:54;;;;;;;0.00;0.00;;;;;;;;;;5015022;28;20184;-61
2021/04/13 07:06:25;;;;;;;0.40;0.40;;;;;;;;;;5013542;28;20243;-61
2021/04/13 07:09:27;;;;;;;0.33;0.33;;;;;;;;;;5009968;28;20192;-61
2021/04/13 07:12:06;;;;;;;0.10;0.10;;;;;;;;;;4955603;28;20244;-61
2021/04/13 07:14:55;;;;;;;0.00;0.00;;;;;;;;;;5007892;28;20203;-62
2021/04/13 07:17:47;;;;;;;0.07;0.07;;;;;;;;;;5009806;28;20196;-62
2021/04/13 07:20:17;;;;;;;0.27;0.27;;;;;;;;;;5007207;28;20192;-61
2021/04/13 07:22:45;;;;;;;0.47;0.47;;;;;;;;;;5016247;28;20188;-62
2021/04/13 07:25:33;;;;;;;1.97;1.83;;;;;;;;;;5012136;28;20814;-61
2021/04/13 07:28:05;;;;;;;0.00;0.00;;;;;;;;;;5008930;28;20195;-62
2021/04/13 07:30:37;;;;;;;0.30;0.30;;;;;;;;;;5013940;28;20237;-48
2021/04/13 07:33:05;;;;;;;0.10;0.10;;;;;;;;;;5008973;28;20644;-49
2021/04/13 07:35:37;;;;;;;0.10;0.10;;;;;;;;;;5012108;28;20574;-50
2021/04/13 07:38:16;;;;;;;0.30;0.30;;;;;;;;;;5015820;28;20547;-51
2021/04/13 07:40:45;;;;;;;0.40;0.40;;;;;;;;;;5013558;28;20187;-53
2021/04/13 07:43:12;;;;;;;0.30;0.30;;;;;;;;;;5016050;28;20960;-48
2021/04/13 07:45:57;;;;;;;2.37;1.43;;;;;;;;;;5020035;28;20179;-53
2021/04/13 07:48:26;;;;;;;0.50;0.50;;;;;;;;;;5013721;28;20195;-50
2021/04/13 07:50:57;;;;;;;0.10;0.10;;;;;;;;;;5013122;28;20187;-49
2021/04/13 07:53:33;;;;;;;0.53;0.53;;;;;;;;;;5007678;28;20195;-50
2021/04/13 07:56:19;;;;;;;0.23;0.23;;;;;;;;;;5016927;28;20191;-48
2021/04/13 07:58:50;;;;;;;1.20;1.03;;;;;;;;;;5013419;28;20222;-51
2021/04/13 08:01:17;;;;;;;0.10;0.10;;;;;;;;;;5011350;28;20184;-53
2021/04/13 08:03:43;;;;;;;0.33;0.33;;;;;;;;;;5013387;28;20192;-51
2021/04/13 08:06:28;;;;;;;0.10;0.10;;;;;;;;;;5013202;28;20180;-51
2021/04/13 08:09:24;;;;;;;0.40;0.40;;;;;;;;;;5013145;28;20648;-49
2021/04/13 08:12:11;;;;;;;0.00;0.00;;;;;;;;;;5001311;28;20218;-51
2021/04/13 08:14:39;;;;;;;0.03;0.03;;;;;;;;;;5011558;28;20193;-50
2021/04/13 08:17:07;;;;;;;0.37;0.37;;;;;;;;;;5015692;28;20192;-52
2021/04/13 08:19:34;;;;;;;0.10;0.10;;;;;;;;;;5009703;28;20189;-49
2021/04/13 08:22:03;;;;;;;0.33;0.33;;;;;;;;;;5013749;28;20199;-48
2021/04/13 08:24:49;;;;;;;0.10;0.10;;;;;;;;;;5014162;28;20687;-50
2021/04/13 08:27:33;;;;;;;0.73;0.73;;;;;;;;;;5015419;28;20195;-52
2021/04/13 08:30:03;;;;;;;0.10;0.10;;;;;;;;;;5015946;28;20179;-50
2021/04/13 08:32:53;;;;;;;0.10;0.10;;;;;;;;;;5014031;28;20192;-48
2021/04/13 08:35:25;;;;;;;2.27;2.17;;;;;;;;;;5012096;28;20184;-52
2021/04/13 08:37:52;;;;;;;0.00;0.00;;;;;;;;;;5016935;28;20238;-51
2021/04/13 08:40:28;;;;;;;0.10;0.10;;;;;;;;;;5013730;28;20180;-53
2021/04/13 08:42:54;;;;;;;0.63;0.63;;;;;;;;;;5010779;28;20600;-52
2021/04/13 08:45:33;;;;;;;0.00;0.00;;;;;;;;;;5014498;28;20677;-49
2021/04/13 08:48:03;;;;;;;0.20;0.20;;;;;;;;;;5015988;28;20245;-50
2021/04/13 08:50:43;;;;;;;0.07;0.07;;;;;;;;;;5018394;28;20184;-50
2021/04/13 08:53:30;;;;;;;0.87;0.87;;;;;;;;;;5016456;28;20928;-51
2021/04/13 08:56:26;;;;;;;0.10;0.10;;;;;;;;;;5007593;28;20191;-51
2021/04/13 08:59:03;;;;;;;0.20;0.20;;;;;;;;;;4996328;28;21234;-52
2021/04/13 09:01:31;;;;;;;0.10;0.10;;;;;;;;;;5012731;28;20184;-61
2021/04/13 09:03:58;;;;;;;0.10;0.10;;;;;;;;;;5016170;28;20187;-61
2021/04/13 09:06:31;;;;;;;0.00;0.00;;;;;;;;;;5014913;28;20629;-61
2021/04/13 09:09:03;;;;;;;0.20;0.20;;;;;;;;;;5018967;28;20191;-62
2021/04/13 09:11:50;;;;;;;0.20;0.20;;;;;;;;;;5017521;28;20248;-61
2021/04/13 09:14:38;;;;;;;0.63;0.63;;;;;;;;;;5011898;28;21034;-62
2021/04/13 09:17:25;;;;;;;0.10;0.10;;;;;;;;;;5014025;28;20200;-62
2021/04/13 09:19:56;;;;;;;1.17;1.17;;;;;;;;;;5020066;28;20671;-62
2021/04/13 09:22:25;;;;;;;1.07;1.07;;;;;;;;;;5021214;28;20207;-61
2021/04/13 09:24:56;;;;;;;0.10;0.10;;;;;;;;;;5021748;28;20724;-61
2021/04/13 09:27:40;;;;;;;0.33;0.33;;;;;;;;;;5015589;28;20184;-61
2021/04/13 09:30:25;;;;;;;0.10;0.10;;;;;;;;;;5014075;28;20181;-61
2021/04/13 09:33:01;;;;;;;0.47;0.47;;;;;;;;;;5016490;28;20184;-61
2021/04/13 09:35:38;;;;;;;0.70;0.70;;;;;;;;;;5015858;28;21177;-61
2021/04/13 09:38:23;;;;;;;0.20;0.20;;;;;;;;;;5008136;28;20243;-61
2021/04/13 09:41:09;;;;;;;0.47;0.47;;;;;;;;;;5014112;28;20184;-61
2021/04/13 09:43:45;;;;;;;0.00;0.00;;;;;;;;;;5019509;28;20907;-61
2021/04/13 09:46:35;;;;;;;0.10;0.10;;;;;;;;;;5018087;28;20188;-61
2021/04/13 09:49:13;;;;;;;0.10;0.10;;;;;;;;;;5011624;28;20215;-61
2021/04/13 09:51:46;;;;;;;0.00;0.00;;;;;;;;;;5017616;28;20184;-61
2021/04/13 09:54:21;;;;;;;0.00;0.00;;;;;;;;;;5016447;28;20187;-62
2021/04/13 09:57:11;;;;;;;0.40;0.40;;;;;;;;;;5019675;28;20183;-61
2021/04/13 09:59:41;;;;;;;0.10;0.10;;;;;;;;;;5014805;28;20427;-55
2021/04/13 10:02:18;;;;;;;0.47;0.30;;;;;;;;;;5021374;28;20951;-52
2021/04/13 10:04:54;;;;;;;0.10;0.10;;;;;;;;;;5021117;28;20528;-56
2021/04/13 10:07:35;;;;;;;0.10;0.10;;;;;;;;;;5016080;28;20183;-51
2021/04/13 10:10:05;;;;;;;3.20;1.03;;;;;;;;;;5016002;28;20184;-53
2021/04/13 10:12:50;;;;;;;1.07;1.07;;;;;;;;;;5013137;28;20310;-49
2021/04/13 10:15:22;;;;;;;0.10;0.10;;;;;;;;;;5023391;28;20188;-56
2021/04/13 10:18:21;;;;;;;0.30;0.30;;;;;;;;;;5016402;28;20210;-47
2021/04/13 10:20:53;;;;;;;0.00;0.00;;;;;;;;;;5011696;28;20191;-54
2021/04/13 10:23:39;;;;;;;0.10;0.10;;;;;;;;;;5014885;28;20267;-51
2021/04/13 10:26:08;;;;;;;0.43;0.43;;;;;;;;;;5013706;28;20266;-52
2021/04/13 10:28:54;;;;;;;0.20;0.20;;;;;;;;;;5014701;28;21060;-48
2021/04/13 10:31:36;;;;;;;0.60;0.60;;;;;;;;;;5014375;28;20187;-52
2021/04/13 10:34:02;;;;;;;0.10;0.10;;;;;;;;;;5011607;28;20917;-49
2021/04/13 13:14:44;;;;;;;0.40;0.40;;;;;;;;;;5102473;27;21120;-47
2021/04/13 13:17:16;;;;;;;0.30;0.30;;;;;;;;;;5089914;28;20182;-53
2021/04/13 13:19:53;;;;;;;0.80;0.80;;;;;;;;;;5092526;28;20288;-48
2021/04/13 13:22:24;;;;;;;16.63;2.53;;;;;;;;;;5093516;28;20204;-56
2021/04/13 13:24:51;;;;;;;0.30;0.30;;;;;;;;;;5101889;28;20803;-49
2021/04/13 13:27:20;;;;;;;0.53;0.50;;;;;;;;;;5090557;28;21052;-50
2021/04/13 13:29:47;;;;;;;1.10;0.90;;;;;;;;;;5094420;28;20218;-52
2021/04/13 13:32:15;;;;;;;0.00;0.00;;;;;;;;;;5093631;28;20243;-48
2021/04/13 13:34:42;;;;;;;0.40;0.27;;;;;;;;;;5090329;28;20724;-50
2021/04/13 13:37:10;;;;;;;0.00;0.00;;;;;;;;;;5086594;28;20531;-47
2021/04/13 13:39:38;;;;;;;1.50;0.83;;;;;;;;;;5088865;27;20277;-46
2021/04/13 13:42:23;;;;;;;1.60;0.93;;;;;;;;;;5093757;28;20208;-51
2021/04/13 13:44:51;;;;;;;1.93;0.60;;;;;;;;;;5090035;28;20236;-48
2021/04/13 13:47:27;;;;;;;0.07;0.07;;;;;;;;;;5092494;28;20782;-50
2021/04/13 13:49:55;;;;;;;0.40;0.40;;;;;;;;;;5088454;28;20193;-48
2021/04/13 13:52:40;;;;;;;0.60;0.57;;;;;;;;;;5092399;28;20185;-53
2021/04/13 13:55:06;;;;;;;0.67;0.57;;;;;;;;;;5093284;28;20758;-48
2021/04/13 13:57:34;;;;;;;0.87;0.63;;;;;;;;;;5092794;28;20186;-49
2021/04/13 14:00:00;;;;;;;1.37;1.00;;;;;;;;;;5100235;28;20182;-50
2021/04/13 14:02:29;;;;;;;0.00;0.00;;;;;;;;;;5095816;28;20531;-55
2021/04/13 14:05:15;;;;;;;2.83;1.23;;;;;;;;;;5093303;28;20678;-47
2021/04/13 14:07:42;;;;;;;1.70;0.60;;;;;;;;;;5092594;28;20277;-52
2021/04/13 14:10:10;;;;;;;3.60;0.93;;;;;;;;;;5094267;28;20868;-49
2021/04/13 14:12:37;;;;;;;0.03;0.03;;;;;;;;;;5093034;28;20265;-53
2021/04/13 14:15:19;;;;;;;7.00;1.50;;;;;;;;;;5085904;28;20190;-50
2021/04/13 14:17:45;;;;;;;5.57;2.13;;;;;;;;;;5090999;28;20188;-52
2021/04/13 14:20:13;;;;;;;0.83;0.83;;;;;;;;;;5092359;28;20193;-51
2021/04/13 14:22:40;;;;;;;0.93;0.57;;;;;;;;;;5095693;28;20236;-49
2021/04/13 14:25:26;;;;;;;0.10;0.10;;;;;;;;;;5084051;28;20210;-52
2021/04/13 14:28:11;;;;;;;3.70;0.60;;;;;;;;;;5078959;28;20182;-50
2021/04/13 14:30:38;;;;;;;0.63;0.63;;;;;;;;;;5078672;28;20186;-49
2021/04/13 14:33:05;;;;;;;1.90;0.80;;;;;;;;;;5077951;28;20210;-50
2021/04/13 14:35:31;;;;;;;0.00;0.00;;;;;;;;;;5076629;28;20712;-51
2021/04/13 14:37:58;;;;;;;0.30;0.27;;;;;;;;;;5068890;28;20189;-51
2021/04/13 14:40:25;;;;;;;0.93;0.77;;;;;;;;;;5071838;28;20182;-51
2021/04/13 14:42:53;;;;;;;0.50;0.50;;;;;;;;;;5075082;28;20572;-62
2021/04/13 14:45:21;;;;;;;0.13;0.10;;;;;;;;;;5074325;28;20225;-61
2021/04/13 14:47:51;;;;;;;0.00;0.00;;;;;;;;;;5080894;28;20201;-61
2021/04/13 14:50:22;;;;;;;4.93;2.10;;;;;;;;;;5069158;28;20186;-62
2021/04/13 14:52:50;;;;;;;1.40;1.33;;;;;;;;;;5074369;28;20253;-50
2021/04/13 14:55:24;;;;;;;1.93;1.37;;;;;;;;;;5068345;28;20584;-49
2021/04/13 14:57:54;;;;;;;1.30;1.13;;;;;;;;;;5071387;28;20185;-51
2021/04/13 15:00:22;;;;;;;1.20;0.47;;;;;;;;;;5071035;28;20303;-51
2021/04/13 15:02:48;;;;;;;2.33;1.30;;;;;;;;;;5075561;28;20343;-52
2021/04/13 15:05:15;;;;;;;0.30;0.30;;;;;;;;;;5080872;28;20201;-54
2021/04/13 15:07:42;;;;;;;0.30;0.30;;;;;;;;;;5075155;28;20179;-51
2021/04/13 15:10:11;;;;;;;1.57;1.40;;;;;;;;;;5073991;28;20182;-51
2021/04/13 15:12:37;;;;;;;3.50;2.10;;;;;;;;;;5087792;28;20484;-48
2021/04/13 15:15:04;;;;;;;0.83;0.67;;;;;;;;;;5076914;28;20630;-51
2021/04/13 15:17:31;;;;;;;2.43;1.17;;;;;;;;;;5077715;28;20291;-50
2021/04/13 15:19:58;;;;;;;2.23;1.50;;;;;;;;;;5077354;28;20688;-49
2021/04/13 15:22:25;;;;;;;2.93;0.83;;;;;;;;;;5071470;28;20583;-49
2021/04/13 15:24:53;;;;;;;0.93;0.80;;;;;;;;;;5071047;28;20195;-49
2021/04/13 15:27:19;;;;;;;0.93;0.73;;;;;;;;;;5073219;28;20179;-52
2021/04/13 15:29:46;;;;;;;2.40;0.63;;;;;;;;;;5072063;28;20179;-54
2021/04/13 15:32:13;;;;;;;1.43;1.07;;;;;;;;;;5072369;28;20193;-48
2021/04/13 15:34:45;;;;;;;1.10;0.63;;;;;;;;;;5077697;28;20957;-49
2021/04/13 15:37:17;;;;;;;0.30;0.30;;;;;;;;;;5076695;28;20662;-51
2021/04/13 15:39:44;;;;;;;1.33;0.70;;;;;;;;;;5071523;28;20259;-52
2021/04/13 15:42:17;;;;;;;1.47;1.37;;;;;;;;;;5066465;28;20910;-52
2021/04/13 15:44:49;;;;;;;5.13;2.90;;;;;;;;;;5069612;28;20540;-51
2021/04/13 15:47:17;;;;;;;0.23;0.23;;;;;;;;;;5070143;28;20178;-54
2021/04/13 15:49:44;;;;;;;0.43;0.43;;;;;;;;;;5064894;28;20183;-50
2021/04/13 15:52:10;;;;;;;2.00;1.23;;;;;;;;;;5071566;28;20661;-49
2021/04/13 15:54:37;;;;;;;5.13;2.20;;;;;;;;;;5068321;28;20221;-51
2021/04/13 15:57:05;;;;;;;1.03;1.00;;;;;;;;;;5066394;28;20189;-49
2021/04/13 15:59:32;;;;;;;5.77;1.70;;;;;;;;;;5067896;28;20264;-50
2021/04/13 16:01:59;;;;;;;3.03;2.73;;;;;;;;;;5068236;28;20424;-52
2021/04/13 16:04:26;;;;;;;0.70;0.43;;;;;;;;;;5076367;28;20271;-49
2021/04/13 16:06:53;;;;;;;0.83;0.83;;;;;;;;;;5074337;28;20197;-49
2021/04/13 16:09:19;;;;;;;0.63;0.63;;;;;;;;;;5073363;28;20190;-48
2021/04/13 16:11:46;;;;;;;0.97;0.97;;;;;;;;;;5074310;28;20642;-52
2021/04/13 16:14:14;;;;;;;0.73;0.60;;;;;;;;;;5073527;28;20558;-54
2021/04/13 16:16:42;;;;;;;3.40;2.00;;;;;;;;;;5071733;28;20186;-53
2021/04/13 16:19:09;;;;;;;5.90;3.00;;;;;;;;;;5075949;28;20178;-50
2021/04/13 16:21:36;;;;;;;0.20;0.20;;;;;;;;;;5066619;28;20190;-53
2021/04/13 16:24:03;;;;;;;1.10;0.63;;;;;;;;;;5070299;28;20323;-49
2021/04/13 16:26:35;;;;;;;4.07;2.00;;;;;;;;;;5070410;28;20557;-48
2021/04/13 16:29:01;;;;;;;0.07;0.07;;;;;;;;;;5075325;28;20193;-50
2021/04/13 16:31:34;;;;;;;1.17;0.97;;;;;;;;;;5085670;28;20665;-48
2021/04/13 16:34:05;;;;;;;2.13;1.40;;;;;;;;;;5078883;28;20221;-49
2021/04/13 16:36:42;;;;;;;0.10;0.10;;;;;;;;;;5075913;28;20548;-47
2021/04/13 16:39:15;;;;;;;2.20;1.23;;;;;;;;;;5073190;28;20186;-48
2021/04/13 16:41:43;;;;;;;0.57;0.30;;;;;;;;;;5076225;28;20205;-49
2021/04/13 16:44:11;;;;;;;1.60;1.50;;;;;;;;;;5075436;28;20545;-45
2021/04/13 16:46:38;;;;;;;0.40;0.40;;;;;;;;;;5076193;28;20316;-46
2021/04/13 16:49:09;;;;;;;2.40;2.20;;;;;;;;;;5075726;28;20638;-48
2021/04/13 16:51:52;;;;;;;1.40;0.90;;;;;;;;;;5075702;28;20193;-50
2021/04/13 16:54:19;;;;;;;0.30;0.30;;;;;;;;;;5075312;28;20247;-50
2021/04/13 16:56:47;;;;;;;0.00;0.00;;;;;;;;;;5081158;28;20251;-49
2021/04/13 16:59:14;;;;;;;0.63;0.60;;;;;;;;;;5075389;28;20386;-49
2021/04/13 17:02:02;;;;;;;0.20;0.20;;;;;;;;;;5072954;28;20301;-47
2021/04/13 17:04:51;;;;;;;0.60;0.60;;;;;;;;;;5081939;28;20185;-50
2021/04/13 17:07:26;;;;;;;0.67;0.30;;;;;;;;;;5071566;28;20190;-61
2021/04/13 17:10:01;;;;;;;0.10;0.10;;;;;;;;;;5073374;28;20554;-61
2021/04/13 17:12:32;;;;;;;4.50;2.83;;;;;;;;;;5076263;28;20186;-61
2021/04/13 17:15:04;;;;;;;0.10;0.00;;;;;;;;;;5077203;28;20189;-61
2021/04/13 17:17:45;;;;;;;0.67;0.63;;;;;;;;;;5077102;28;20192;-61
2021/04/13 17:20:15;;;;;;;0.20;0.20;;;;;;;;;;5072535;28;20186;-61
2021/04/13 17:22:43;;;;;;;0.27;0.27;;;;;;;;;;5076361;28;20432;-60
2021/04/13 17:25:13;;;;;;;0.20;0.20;;;;;;;;;;5076588;28;20286;-61
2021/04/13 17:27:43;;;;;;;0.83;0.43;;;;;;;;;;5076357;28;20254;-61
2021/04/13 17:30:14;;;;;;;15.73;3.13;;;;;;;;;;5076987;28;20186;-61
2021/04/13 17:32:47;;;;;;;1.70;1.50;;;;;;;;;;5076841;28;20186;-61
2021/04/13 17:35:13;;;;;;;2.33;2.17;;;;;;;;;;5076717;28;20190;-61
2021/04/13 17:37:44;;;;;;;0.00;0.00;;;;;;;;;;5076455;28;20198;-61
2021/04/13 17:40:13;;;;;;;0.33;0.23;;;;;;;;;;5075665;28;20536;-61
2021/04/13 17:43:09;;;;;;;0.73;0.73;;;;;;;;;;5075818;28;20674;-61
2021/04/13 17:45:36;;;;;;;0.27;0.27;;;;;;;;;;5063500;28;20298;-61
2021/04/13 17:48:03;;;;;;;1.50;1.40;;;;;;;;;;5076662;28;20230;-61
2021/04/13 17:50:30;;;;;;;2.93;1.43;;;;;;;;;;5076356;28;20209;-61
2021/04/13 17:52:59;;;;;;;0.90;0.90;;;;;;;;;;5076230;28;20323;-61
2021/04/13 17:55:31;;;;;;;5.73;1.10;;;;;;;;;;5075032;28;20206;-61
2021/04/13 17:57:58;;;;;;;0.67;0.67;;;;;;;;;;5075575;28;20488;-62
2021/04/13 18:00:25;;;;;;;0.33;0.23;;;;;;;;;;5071511;28;20188;-61
2021/04/13 18:02:56;;;;;;;1.80;0.93;;;;;;;;;;5073721;28;20200;-62
2021/04/13 18:05:22;;;;;;;2.83;0.57;;;;;;;;;;5066225;28;20185;-62
2021/04/13 18:07:54;;;;;;;1.23;0.53;;;;;;;;;;5068302;28;20503;-61